Terminal Aerodrome Forecast
Issued by NWS Corpus Christi, TX

Home | Current Version | Previous Version | Text Only | Print | Product List | Glossary On
Versions: 1 2 3 4 5 6 7 8 9 10 11 12 13 14 15 16 17 18
167
FTUS44 KCRP 290535
TAFCRP
TAF
KCRP 290535Z 2906/3006 15024G30KT P6SM BKN012 OVC022
      TEMPO 2906/2910 SCT012 BKN022
     FM291200 19009KT P6SM VCTS SCT015CB BKN024
      TEMPO 2912/2915 6SM SHRA BR BKN015
     FM291600 29007KT P6SM SCT250
     FM292100 10008KT P6SM FEW025=

USA.gov is the U.S. government's official web portal to all federal, state and local government web resources and services.